sensor_id;sensor_type;location;lat;lon;timestamp;pressure;altitude;pressure_sealevel;temperature;humidity
78198;BME280;67472;51.554;7.812;2023-08-31T00:00:32;100098.28;;;13.97;100.00
78198;BME280;67472;51.554;7.812;2023-08-31T00:03:18;100096.59;;;13.88;100.00
78198;BME280;67472;51.554;7.812;2023-08-31T00:06:05;100090.16;;;13.98;100.00
78198;BME280;67472;51.554;7.812;2023-08-31T00:08:52;100089.00;;;13.93;100.00
78198;BME280;67472;51.554;7.812;2023-08-31T00:11:38;100084.97;;;13.81;100.00
78198;BME280;67472;51.554;7.812;2023-08-31T00:14:26;100087.44;;;13.74;100.00
78198;BME280;67472;51.554;7.812;2023-08-31T00:17:13;100087.78;;;13.87;100.00
78198;BME280;67472;51.554;7.812;2023-08-31T00:19:59;100093.94;;;13.88;100.00
78198;BME280;67472;51.554;7.812;2023-08-31T00:22:46;100078.66;;;13.82;100.00
78198;BME280;67472;51.554;7.812;2023-08-31T00:25:32;100078.00;;;13.88;100.00
78198;BME280;67472;51.554;7.812;2023-08-31T00:28:19;100072.69;;;13.88;100.00
78198;BME280;67472;51.554;7.812;2023-08-31T00:31:06;100068.41;;;13.87;100.00
78198;BME280;67472;51.554;7.812;2023-08-31T00:33:53;100068.06;;;13.90;100.00
78198;BME280;67472;51.554;7.812;2023-08-31T00:36:40;100078.16;;;13.78;100.00
78198;BME280;67472;51.554;7.812;2023-08-31T00:39:26;100075.53;;;13.86;100.00
78198;BME280;67472;51.554;7.812;2023-08-31T00:42:13;100078.31;;;13.85;100.00
78198;BME280;67472;51.554;7.812;2023-08-31T00:44:59;100073.38;;;13.90;100.00
78198;BME280;67472;51.554;7.812;2023-08-31T00:47:46;100078.00;;;13.80;100.00
78198;BME280;67472;51.554;7.812;2023-08-31T00:50:35;100076.03;;;13.90;100.00
78198;BME280;67472;51.554;7.812;2023-08-31T00:53:22;100072.88;;;13.86;100.00
78198;BME280;67472;51.554;7.812;2023-08-31T00:56:09;100071.38;;;13.84;100.00
78198;BME280;67472;51.554;7.812;2023-08-31T00:58:55;100067.56;;;13.86;100.00
78198;BME280;67472;51.554;7.812;2023-08-31T01:01:49;100071.19;;;13.85;100.00
78198;BME280;67472;51.554;7.812;2023-08-31T01:04:42;100072.53;;;13.81;100.00
78198;BME280;67472;51.554;7.812;2023-08-31T01:07:41;100075.19;;;13.89;100.00
78198;BME280;67472;51.554;7.812;2023-08-31T01:10:34;100074.00;;;13.76;100.00
78198;BME280;67472;51.554;7.812;2023-08-31T01:13:24;100072.34;;;13.75;100.00
78198;BME280;67472;51.554;7.812;2023-08-31T01:16:12;100078.63;;;13.74;100.00
78198;BME280;67472;51.554;7.812;2023-08-31T01:19:01;100083.28;;;13.72;100.00
78198;BME280;67472;51.554;7.812;2023-08-31T01:21:50;100080.13;;;13.68;100.00
78198;BME280;67472;51.554;7.812;2023-08-31T01:24:40;100092.88;;;13.65;100.00
78198;BME280;67472;51.554;7.812;2023-08-31T01:27:27;100090.91;;;13.67;100.00
78198;BME280;67472;51.554;7.812;2023-08-31T01:30:13;100093.69;;;13.57;100.00
78198;BME280;67472;51.554;7.812;2023-08-31T01:32:59;100102.81;;;13.63;100.00
78198;BME280;67472;51.554;7.812;2023-08-31T01:35:49;100108.44;;;13.59;100.00
78198;BME280;67472;51.554;7.812;2023-08-31T01:38:39;100106.84;;;13.67;100.00
78198;BME280;67472;51.554;7.812;2023-08-31T01:41:33;100102.19;;;13.69;100.00
78198;BME280;67472;51.554;7.812;2023-08-31T01:44:21;100103.81;;;13.62;100.00
78198;BME280;67472;51.554;7.812;2023-08-31T01:47:07;100104.41;;;13.47;100.00
78198;BME280;67472;51.554;7.812;2023-08-31T01:49:53;100112.91;;;13.51;100.00
78198;BME280;67472;51.554;7.812;2023-08-31T01:52:42;100115.03;;;13.47;100.00
78198;BME280;67472;51.554;7.812;2023-08-31T01:55:29;100098.72;;;13.34;100.00
78198;BME280;67472;51.554;7.812;2023-08-31T01:58:16;100106.16;;;13.31;100.00
78198;BME280;67472;51.554;7.812;2023-08-31T02:01:03;100100.78;;;13.15;100.00
78198;BME280;67472;51.554;7.812;2023-08-31T02:03:49;100105.41;;;13.13;100.00
78198;BME280;67472;51.554;7.812;2023-08-31T02:06:34;100096.00;;;13.00;100.00
78198;BME280;67472;51.554;7.812;2023-08-31T02:09:20;100107.97;;;13.04;100.00
78198;BME280;67472;51.554;7.812;2023-08-31T02:12:07;100105.06;;;12.90;100.00
78198;BME280;67472;51.554;7.812;2023-08-31T02:14:55;100121.53;;;13.01;100.00
78198;BME280;67472;51.554;7.812;2023-08-31T02:17:42;100111.78;;;13.02;100.00
78198;BME280;67472;51.554;7.812;2023-08-31T02:20:28;100117.03;;;12.94;100.00
78198;BME280;67472;51.554;7.812;2023-08-31T02:23:15;100111.66;;;12.86;100.00
78198;BME280;67472;51.554;7.812;2023-08-31T02:26:01;100122.88;;;12.80;100.00
78198;BME280;67472;51.554;7.812;2023-08-31T02:28:47;100127.88;;;12.83;100.00
78198;BME280;67472;51.554;7.812;2023-08-31T02:31:35;100123.34;;;12.75;100.00
78198;BME280;67472;51.554;7.812;2023-08-31T02:34:23;100128.66;;;12.75;100.00
78198;BME280;67472;51.554;7.812;2023-08-31T02:37:10;100125.94;;;12.67;100.00
78198;BME280;67472;51.554;7.812;2023-08-31T02:39:56;100131.56;;;12.64;100.00
78198;BME280;67472;51.554;7.812;2023-08-31T02:42:42;100130.78;;;12.72;100.00
78198;BME280;67472;51.554;7.812;2023-08-31T02:45:28;100125.03;;;12.76;100.00
78198;BME280;67472;51.554;7.812;2023-08-31T02:48:15;100123.34;;;12.75;100.00
78198;BME280;67472;51.554;7.812;2023-08-31T02:51:01;100121.97;;;12.71;100.00
78198;BME280;67472;51.554;7.812;2023-08-31T02:53:48;100118.13;;;12.66;100.00
78198;BME280;67472;51.554;7.812;2023-08-31T02:56:34;100118.31;;;12.64;100.00
78198;BME280;67472;51.554;7.812;2023-08-31T02:59:20;100118.00;;;12.67;100.00
78198;BME280;67472;51.554;7.812;2023-08-31T03:02:06;100115.34;;;12.67;100.00
78198;BME280;67472;51.554;7.812;2023-08-31T03:04:55;100117.25;;;12.57;100.00
78198;BME280;67472;51.554;7.812;2023-08-31T03:07:42;100114.47;;;12.41;100.00
78198;BME280;67472;51.554;7.812;2023-08-31T03:10:29;100111.50;;;12.44;100.00
78198;BME280;67472;51.554;7.812;2023-08-31T03:13:15;100120.78;;;12.48;100.00
78198;BME280;67472;51.554;7.812;2023-08-31T03:16:01;100115.66;;;12.46;100.00
78198;BME280;67472;51.554;7.812;2023-08-31T03:18:47;100121.34;;;12.52;100.00
78198;BME280;67472;51.554;7.812;2023-08-31T03:21:35;100119.22;;;12.55;100.00
78198;BME280;67472;51.554;7.812;2023-08-31T03:24:22;100122.66;;;12.48;100.00
78198;BME280;67472;51.554;7.812;2023-08-31T03:27:08;100119.75;;;12.41;100.00
78198;BME280;67472;51.554;7.812;2023-08-31T03:29:54;100120.06;;;12.38;100.00
78198;BME280;67472;51.554;7.812;2023-08-31T03:32:41;100128.31;;;12.35;100.00
78198;BME280;67472;51.554;7.812;2023-08-31T03:35:27;100125.97;;;12.32;100.00
78198;BME280;67472;51.554;7.812;2023-08-31T03:38:18;100139.28;;;12.40;100.00
78198;BME280;67472;51.554;7.812;2023-08-31T03:41:04;100144.19;;;12.35;100.00
78198;BME280;67472;51.554;7.812;2023-08-31T03:43:51;100148.59;;;12.26;100.00
78198;BME280;67472;51.554;7.812;2023-08-31T03:46:41;100151.47;;;12.33;100.00
78198;BME280;67472;51.554;7.812;2023-08-31T03:49:27;100148.34;;;12.37;100.00
78198;BME280;67472;51.554;7.812;2023-08-31T03:52:13;100143.88;;;12.20;100.00
78198;BME280;67472;51.554;7.812;2023-08-31T03:55:00;100153.28;;;12.32;100.00
78198;BME280;67472;51.554;7.812;2023-08-31T03:57:46;100154.53;;;12.11;100.00
78198;BME280;67472;51.554;7.812;2023-08-31T04:00:38;100149.66;;;12.16;100.00
78198;BME280;67472;51.554;7.812;2023-08-31T04:03:24;100157.13;;;12.20;100.00
78198;BME280;67472;51.554;7.812;2023-08-31T04:06:11;100150.03;;;12.21;100.00
78198;BME280;67472;51.554;7.812;2023-08-31T04:08:59;100153.81;;;12.18;100.00
78198;BME280;67472;51.554;7.812;2023-08-31T04:11:46;100158.03;;;12.11;100.00
78198;BME280;67472;51.554;7.812;2023-08-31T04:14:33;100165.44;;;12.08;100.00
78198;BME280;67472;51.554;7.812;2023-08-31T04:17:19;100174.06;;;12.10;100.00
78198;BME280;67472;51.554;7.812;2023-08-31T04:20:06;100179.19;;;12.11;100.00
78198;BME280;67472;51.554;7.812;2023-08-31T04:22:53;100184.25;;;12.05;100.00
78198;BME280;67472;51.554;7.812;2023-08-31T04:25:39;100181.31;;;12.08;100.00
78198;BME280;67472;51.554;7.812;2023-08-31T04:28:27;100188.75;;;12.04;100.00
78198;BME280;67472;51.554;7.812;2023-08-31T04:31:13;100190.97;;;11.99;100.00
78198;BME280;67472;51.554;7.812;2023-08-31T04:33:59;100186.22;;;12.03;100.00
78198;BME280;67472;51.554;7.812;2023-08-31T04:36:45;100187.09;;;11.94;100.00
78198;BME280;67472;51.554;7.812;2023-08-31T04:39:31;100188.03;;;12.02;100.00
78198;BME280;67472;51.554;7.812;2023-08-31T04:42:17;100190.97;;;11.99;100.00
78198;BME280;67472;51.554;7.812;2023-08-31T04:45:06;100197.06;;;12.09;100.00
78198;BME280;67472;51.554;7.812;2023-08-31T04:47:52;100195.69;;;12.05;100.00
78198;BME280;67472;51.554;7.812;2023-08-31T04:50:39;100195.84;;;12.04;100.00
78198;BME280;67472;51.554;7.812;2023-08-31T04:53:25;100201.97;;;12.04;100.00
78198;BME280;67472;51.554;7.812;2023-08-31T04:56:11;100200.59;;;12.00;100.00
78198;BME280;67472;51.554;7.812;2023-08-31T04:58:57;100210.13;;;12.11;100.00
78198;BME280;67472;51.554;7.812;2023-08-31T05:01:45;100197.53;;;12.22;100.00
78198;BME280;67472;51.554;7.812;2023-08-31T05:04:31;100200.28;;;12.30;100.00
78198;BME280;67472;51.554;7.812;2023-08-31T05:07:17;100190.38;;;12.32;100.00
78198;BME280;67472;51.554;7.812;2023-08-31T05:10:04;100190.13;;;12.43;100.00
78198;BME280;67472;51.554;7.812;2023-08-31T05:12:50;100187.72;;;12.32;100.00
78198;BME280;67472;51.554;7.812;2023-08-31T05:15:36;100185.06;;;12.50;100.00
78198;BME280;67472;51.554;7.812;2023-08-31T05:18:24;100190.75;;;12.55;100.00
78198;BME280;67472;51.554;7.812;2023-08-31T05:21:10;100192.44;;;12.56;100.00
78198;BME280;67472;51.554;7.812;2023-08-31T05:23:56;100203.69;;;12.76;100.00
78198;BME280;67472;51.554;7.812;2023-08-31T05:26:42;100206.47;;;12.57;100.00
78198;BME280;67472;51.554;7.812;2023-08-31T05:29:29;100211.41;;;12.69;100.00
78198;BME280;67472;51.554;7.812;2023-08-31T05:32:15;100205.50;;;12.75;100.00
78198;BME280;67472;51.554;7.812;2023-08-31T05:35:03;100202.78;;;12.85;100.00
78198;BME280;67472;51.554;7.812;2023-08-31T05:37:49;100197.72;;;12.74;100.00
78198;BME280;67472;51.554;7.812;2023-08-31T05:40:35;100195.69;;;12.68;100.00
78198;BME280;67472;51.554;7.812;2023-08-31T05:43:21;100203.94;;;12.65;100.00
78198;BME280;67472;51.554;7.812;2023-08-31T05:46:08;100205.75;;;12.82;100.00
78198;BME280;67472;51.554;7.812;2023-08-31T05:48:54;100203.03;;;12.74;100.00
78198;BME280;67472;51.554;7.812;2023-08-31T05:51:42;100203.03;;;12.74;100.00
78198;BME280;67472;51.554;7.812;2023-08-31T05:54:28;100206.94;;;12.70;100.00
78198;BME280;67472;51.554;7.812;2023-08-31T05:57:18;100208.63;;;12.88;100.00
78198;BME280;67472;51.554;7.812;2023-08-31T06:00:06;100207.97;;;12.94;100.00
78198;BME280;67472;51.554;7.812;2023-08-31T06:02:57;100209.50;;;12.97;100.00
78198;BME280;67472;51.554;7.812;2023-08-31T06:05:44;100203.25;;;13.06;100.00
78198;BME280;67472;51.554;7.812;2023-08-31T06:08:31;100201.41;;;13.16;100.00
78198;BME280;67472;51.554;7.812;2023-08-31T06:11:18;100211.69;;;13.19;100.00
78198;BME280;67472;51.554;7.812;2023-08-31T06:14:04;100211.03;;;13.17;100.00
78198;BME280;67472;51.554;7.812;2023-08-31T06:16:50;100210.59;;;13.30;100.00
78198;BME280;67472;51.554;7.812;2023-08-31T06:19:37;100212.97;;;13.41;100.00
78198;BME280;67472;51.554;7.812;2023-08-31T06:22:23;100207.31;;;13.62;100.00
78198;BME280;67472;51.554;7.812;2023-08-31T06:25:10;100209.66;;;13.65;100.00
78198;BME280;67472;51.554;7.812;2023-08-31T06:27:59;100206.84;;;13.66;100.00
78198;BME280;67472;51.554;7.812;2023-08-31T06:30:46;100201.56;;;13.74;100.00
78198;BME280;67472;51.554;7.812;2023-08-31T06:33:32;100200.63;;;13.83;100.00
78198;BME280;67472;51.554;7.812;2023-08-31T06:36:18;100200.53;;;14.01;100.00
78198;BME280;67472;51.554;7.812;2023-08-31T06:39:06;100188.44;;;14.14;100.00
78198;BME280;67472;51.554;7.812;2023-08-31T06:41:53;100180.66;;;14.13;100.00
78198;BME280;67472;51.554;7.812;2023-08-31T06:44:48;100185.03;;;14.30;100.00
78198;BME280;67472;51.554;7.812;2023-08-31T06:47:34;100177.56;;;14.34;100.00
78198;BME280;67472;51.554;7.812;2023-08-31T06:50:20;100185.06;;;14.54;100.00
78198;BME280;67472;51.554;7.812;2023-08-31T06:53:06;100176.63;;;14.51;100.00
78198;BME280;67472;51.554;7.812;2023-08-31T06:55:52;100173.47;;;14.63;100.00
78198;BME280;67472;51.554;7.812;2023-08-31T06:58:39;100170.47;;;14.75;100.00
78198;BME280;67472;51.554;7.812;2023-08-31T07:01:25;100171.47;;;14.98;100.00
78198;BME280;67472;51.554;7.812;2023-08-31T07:04:12;100175.78;;;14.99;100.00
78198;BME280;67472;51.554;7.812;2023-08-31T07:06:59;100158.84;;;15.00;100.00
78198;BME280;67472;51.554;7.812;2023-08-31T07:09:47;100172.47;;;14.73;100.00
78198;BME280;67472;51.554;7.812;2023-08-31T07:12:33;100158.34;;;14.88;100.00
78198;BME280;67472;51.554;7.812;2023-08-31T07:15:20;100159.47;;;15.10;100.00
78198;BME280;67472;51.554;7.812;2023-08-31T07:18:07;100164.44;;;15.21;100.00
78198;BME280;67472;51.554;7.812;2023-08-31T07:20:53;100158.09;;;15.46;100.00
78198;BME280;67472;51.554;7.812;2023-08-31T07:23:39;100147.38;;;15.70;100.00
78198;BME280;67472;51.554;7.812;2023-08-31T07:26:26;100158.00;;;15.78;100.00
78198;BME280;67472;51.554;7.812;2023-08-31T07:29:12;100133.94;;;15.64;100.00
78198;BME280;67472;51.554;7.812;2023-08-31T07:31:59;100126.94;;;16.02;100.00
78198;BME280;67472;51.554;7.812;2023-08-31T07:34:45;100128.13;;;16.22;100.00
78198;BME280;67472;51.554;7.812;2023-08-31T07:37:32;100121.44;;;16.26;100.00
78198;BME280;67472;51.554;7.812;2023-08-31T07:40:18;100129.63;;;16.47;100.00
78198;BME280;67472;51.554;7.812;2023-08-31T07:43:04;100116.56;;;16.52;100.00
78198;BME280;67472;51.554;7.812;2023-08-31T07:45:50;100114.06;;;16.59;100.00
78198;BME280;67472;51.554;7.812;2023-08-31T07:48:38;100107.00;;;16.66;100.00
78198;BME280;67472;51.554;7.812;2023-08-31T07:51:24;100107.28;;;16.71;100.00
78198;BME280;67472;51.554;7.812;2023-08-31T07:54:10;100091.66;;;16.68;100.00
78198;BME280;67472;51.554;7.812;2023-08-31T07:56:57;100096.34;;;16.80;100.00
78198;BME280;67472;51.554;7.812;2023-08-31T07:59:44;100093.19;;;17.00;100.00
78198;BME280;67472;51.554;7.812;2023-08-31T08:02:30;100088.94;;;17.05;100.00
78198;BME280;67472;51.554;7.812;2023-08-31T08:05:17;100072.56;;;17.23;100.00
78198;BME280;67472;51.554;7.812;2023-08-31T08:08:04;100090.78;;;17.19;100.00
78198;BME280;67472;51.554;7.812;2023-08-31T08:10:52;100085.28;;;17.35;100.00
78198;BME280;67472;51.554;7.812;2023-08-31T08:13:38;100079.41;;;17.55;100.00
78198;BME280;67472;51.554;7.812;2023-08-31T08:16:24;100089.13;;;17.77;100.00
78198;BME280;67472;51.554;7.812;2023-08-31T08:19:10;100081.56;;;17.80;100.00
78198;BME280;67472;51.554;7.812;2023-08-31T08:21:58;100084.41;;;17.93;100.00
78198;BME280;67472;51.554;7.812;2023-08-31T08:24:44;100086.09;;;17.50;100.00
78198;BME280;67472;51.554;7.812;2023-08-31T08:27:29;100112.34;;;17.32;100.00
78198;BME280;67472;51.554;7.812;2023-08-31T08:30:17;100113.06;;;16.97;100.00
78198;BME280;67472;51.554;7.812;2023-08-31T08:33:04;100102.78;;;16.71;100.00
78198;BME280;67472;51.554;7.812;2023-08-31T08:35:50;100117.06;;;16.78;100.00
78198;BME280;67472;51.554;7.812;2023-08-31T08:38:38;100118.97;;;16.70;100.00
78198;BME280;67472;51.554;7.812;2023-08-31T08:41:24;100113.31;;;16.87;100.00
78198;BME280;67472;51.554;7.812;2023-08-31T08:44:11;100101.56;;;17.11;100.00
78198;BME280;67472;51.554;7.812;2023-08-31T08:47:02;100107.19;;;17.45;100.00
78198;BME280;67472;51.554;7.812;2023-08-31T08:49:48;100104.16;;;17.63;100.00
78198;BME280;67472;51.554;7.812;2023-08-31T08:52:35;100091.31;;;17.73;100.00
78198;BME280;67472;51.554;7.812;2023-08-31T08:55:23;100084.22;;;17.80;100.00
78198;BME280;67472;51.554;7.812;2023-08-31T08:58:09;100089.75;;;17.93;100.00
78198;BME280;67472;51.554;7.812;2023-08-31T09:00:56;100078.88;;;18.16;100.00
78198;BME280;67472;51.554;7.812;2023-08-31T09:03:42;100079.63;;;18.10;100.00
78198;BME280;67472;51.554;7.812;2023-08-31T09:06:28;100084.41;;;18.15;100.00
78198;BME280;67472;51.554;7.812;2023-08-31T09:09:15;100085.09;;;18.02;100.00
78198;BME280;67472;51.554;7.812;2023-08-31T09:12:08;100080.66;;;18.30;100.00
78198;BME280;67472;51.554;7.812;2023-08-31T09:14:58;100078.03;;;18.51;100.00
78198;BME280;67472;51.554;7.812;2023-08-31T09:17:44;100083.34;;;19.00;100.00
78198;BME280;67472;51.554;7.812;2023-08-31T09:20:32;100061.75;;;19.43;100.00
78198;BME280;67472;51.554;7.812;2023-08-31T09:23:28;100075.66;;;19.59;100.00
78198;BME280;67472;51.554;7.812;2023-08-31T09:26:14;100059.56;;;19.53;100.00
78198;BME280;67472;51.554;7.812;2023-08-31T09:29:04;100059.75;;;19.17;100.00
78198;BME280;67472;51.554;7.812;2023-08-31T09:31:50;100059.13;;;18.87;100.00
78198;BME280;67472;51.554;7.812;2023-08-31T09:34:36;100078.94;;;18.93;100.00
78198;BME280;67472;51.554;7.812;2023-08-31T09:37:23;100078.47;;;18.83;100.00
78198;BME280;67472;51.554;7.812;2023-08-31T09:40:10;100072.16;;;18.69;100.00
78198;BME280;67472;51.554;7.812;2023-08-31T09:43:00;100080.19;;;18.69;100.00
78198;BME280;67472;51.554;7.812;2023-08-31T09:45:48;100072.47;;;18.53;100.00
78198;BME280;67472;51.554;7.812;2023-08-31T09:48:36;100070.63;;;18.53;100.00
78198;BME280;67472;51.554;7.812;2023-08-31T09:51:23;100072.75;;;18.65;100.00
78198;BME280;67472;51.554;7.812;2023-08-31T09:54:14;100072.31;;;18.61;100.00
78198;BME280;67472;51.554;7.812;2023-08-31T09:57:01;100071.03;;;18.36;100.00
78198;BME280;67472;51.554;7.812;2023-08-31T09:59:48;100085.69;;;18.40;100.00
78198;BME280;67472;51.554;7.812;2023-08-31T10:02:36;100100.38;;;18.29;100.00
78198;BME280;67472;51.554;7.812;2023-08-31T10:05:23;100089.81;;;18.21;100.00
78198;BME280;67472;51.554;7.812;2023-08-31T10:08:10;100092.25;;;18.80;100.00
78198;BME280;67472;51.554;7.812;2023-08-31T10:10:59;100082.09;;;19.37;100.00
78198;BME280;67472;51.554;7.812;2023-08-31T10:13:47;100074.25;;;19.29;100.00
78198;BME280;67472;51.554;7.812;2023-08-31T10:16:34;100070.78;;;19.35;100.00
78198;BME280;67472;51.554;7.812;2023-08-31T10:19:22;100068.25;;;18.65;100.00
78198;BME280;67472;51.554;7.812;2023-08-31T10:22:08;100106.44;;;18.17;100.00
78198;BME280;67472;51.554;7.812;2023-08-31T10:24:58;100128.34;;;18.48;100.00
78198;BME280;67472;51.554;7.812;2023-08-31T10:27:45;100134.63;;;18.40;100.00
78198;BME280;67472;51.554;7.812;2023-08-31T10:30:35;100113.91;;;18.42;100.00
78198;BME280;67472;51.554;7.812;2023-08-31T10:33:22;100104.56;;;18.53;100.00
78198;BME280;67472;51.554;7.812;2023-08-31T10:36:14;100085.81;;;18.32;100.00
78198;BME280;67472;51.554;7.812;2023-08-31T10:39:05;100086.31;;;18.21;100.00
78198;BME280;67472;51.554;7.812;2023-08-31T10:41:52;100107.66;;;17.99;100.00
78198;BME280;67472;51.554;7.812;2023-08-31T10:44:41;100093.50;;;18.20;100.00
78198;BME280;67472;51.554;7.812;2023-08-31T10:47:36;100097.53;;;18.31;100.00
78198;BME280;67472;51.554;7.812;2023-08-31T10:50:24;100107.56;;;18.29;100.00
78198;BME280;67472;51.554;7.812;2023-08-31T10:53:12;100102.19;;;18.22;100.00
78198;BME280;67472;51.554;7.812;2023-08-31T10:55:58;100102.94;;;18.37;100.00
78198;BME280;67472;51.554;7.812;2023-08-31T10:58:56;100108.31;;;18.58;100.00
78198;BME280;67472;51.554;7.812;2023-08-31T11:01:58;100124.00;;;18.26;100.00
78198;BME280;67472;51.554;7.812;2023-08-31T11:04:55;100162.19;;;17.55;100.00
78198;BME280;67472;51.554;7.812;2023-08-31T11:07:42;100178.31;;;17.09;100.00
78198;BME280;67472;51.554;7.812;2023-08-31T11:10:30;100176.34;;;16.88;100.00
78198;BME280;67472;51.554;7.812;2023-08-31T11:13:18;100193.34;;;16.87;100.00
78198;BME280;67472;51.554;7.812;2023-08-31T11:16:05;100197.72;;;16.80;100.00
78198;BME280;67472;51.554;7.812;2023-08-31T11:18:51;100204.50;;;16.91;100.00
78198;BME280;67472;51.554;7.812;2023-08-31T11:21:37;100203.97;;;16.73;100.00
78198;BME280;67472;51.554;7.812;2023-08-31T11:24:25;100215.56;;;16.49;100.00
78198;BME280;67472;51.554;7.812;2023-08-31T11:27:13;100215.88;;;16.62;100.00
78198;BME280;67472;51.554;7.812;2023-08-31T11:29:59;100207.50;;;16.34;100.00
78198;BME280;67472;51.554;7.812;2023-08-31T11:32:46;100218.44;;;16.48;100.00
78198;BME280;67472;51.554;7.812;2023-08-31T11:35:34;100231.03;;;16.62;100.00
78198;BME280;67472;51.554;7.812;2023-08-31T11:38:21;100240.63;;;16.40;100.00
78198;BME280;67472;51.554;7.812;2023-08-31T11:41:07;100251.88;;;16.58;100.00
78198;BME280;67472;51.554;7.812;2023-08-31T11:43:54;100256.81;;;16.69;100.00
78198;BME280;67472;51.554;7.812;2023-08-31T11:46:42;100250.97;;;16.97;100.00
78198;BME280;67472;51.554;7.812;2023-08-31T11:49:29;100236.97;;;16.94;100.00
78198;BME280;67472;51.554;7.812;2023-08-31T11:52:16;100241.66;;;16.92;100.00
78198;BME280;67472;51.554;7.812;2023-08-31T11:55:08;100242.66;;;17.14;100.00
78198;BME280;67472;51.554;7.812;2023-08-31T11:57:55;100233.94;;;17.72;100.00
78198;BME280;67472;51.554;7.812;2023-08-31T12:00:44;100205.75;;;18.49;100.00
78198;BME280;67472;51.554;7.812;2023-08-31T12:03:42;100190.03;;;19.03;100.00
78198;BME280;67472;51.554;7.812;2023-08-31T12:06:29;100147.72;;;19.20;100.00
78198;BME280;67472;51.554;7.812;2023-08-31T12:09:15;100158.78;;;19.38;100.00
78198;BME280;67472;51.554;7.812;2023-08-31T12:12:02;100149.22;;;19.29;100.00
78198;BME280;67472;51.554;7.812;2023-08-31T12:14:52;100142.88;;;19.37;100.00
78198;BME280;67472;51.554;7.812;2023-08-31T12:17:40;100142.22;;;19.62;100.00
78198;BME280;67472;51.554;7.812;2023-08-31T12:20:28;100136.44;;;19.52;100.00
78198;BME280;67472;51.554;7.812;2023-08-31T12:23:14;100131.44;;;19.22;100.00
78198;BME280;67472;51.554;7.812;2023-08-31T12:26:01;100147.53;;;19.49;100.00
78198;BME280;67472;51.554;7.812;2023-08-31T12:28:47;100145.16;;;19.05;100.00
78198;BME280;67472;51.554;7.812;2023-08-31T12:31:33;100126.19;;;18.79;100.00
78198;BME280;67472;51.554;7.812;2023-08-31T12:34:21;100128.97;;;18.92;100.00
78198;BME280;67472;51.554;7.812;2023-08-31T12:37:08;100132.47;;;18.93;100.00
78198;BME280;67472;51.554;7.812;2023-08-31T12:39:53;100144.59;;;18.89;100.00
78198;BME280;67472;51.554;7.812;2023-08-31T12:42:40;100132.88;;;19.17;100.00
78198;BME280;67472;51.554;7.812;2023-08-31T12:45:26;100136.00;;;19.21;100.00
78198;BME280;67472;51.554;7.812;2023-08-31T12:48:13;100140.31;;;18.94;100.00
78198;BME280;67472;51.554;7.812;2023-08-31T12:51:01;100143.66;;;19.31;100.00
78198;BME280;67472;51.554;7.812;2023-08-31T12:53:47;100125.94;;;19.57;100.00
78198;BME280;67472;51.554;7.812;2023-08-31T12:56:33;100129.94;;;19.74;100.00
78198;BME280;67472;51.554;7.812;2023-08-31T12:59:20;100102.50;;;20.26;100.00
78198;BME280;67472;51.554;7.812;2023-08-31T13:02:06;100095.31;;;20.73;100.00
78198;BME280;67472;51.554;7.812;2023-08-31T13:04:55;100045.53;;;21.10;100.00
78198;BME280;67472;51.554;7.812;2023-08-31T13:07:43;100047.16;;;21.11;100.00
78198;BME280;67472;51.554;7.812;2023-08-31T13:10:29;100029.97;;;21.31;100.00
78198;BME280;67472;51.554;7.812;2023-08-31T13:13:16;100038.41;;;21.42;100.00
78198;BME280;67472;51.554;7.812;2023-08-31T13:16:02;100027.81;;;20.56;100.00
78198;BME280;67472;51.554;7.812;2023-08-31T13:18:49;100037.03;;;20.14;100.00
78198;BME280;67472;51.554;7.812;2023-08-31T13:21:35;100052.03;;;19.89;100.00
78198;BME280;67472;51.554;7.812;2023-08-31T13:24:23;100071.81;;;19.75;100.00
78198;BME280;67472;51.554;7.812;2023-08-31T13:27:09;100060.31;;;19.40;100.00
78198;BME280;67472;51.554;7.812;2023-08-31T13:29:56;100074.16;;;20.04;100.00
78198;BME280;67472;51.554;7.812;2023-08-31T13:32:42;100072.81;;;20.67;100.00
78198;BME280;67472;51.554;7.812;2023-08-31T13:35:29;100044.31;;;20.79;100.00
78198;BME280;67472;51.554;7.812;2023-08-31T13:38:15;100041.78;;;21.04;100.00
78198;BME280;67472;51.554;7.812;2023-08-31T13:41:03;100019.91;;;20.94;95.26
78198;BME280;67472;51.554;7.812;2023-08-31T13:43:49;100035.31;;;21.38;95.35
78198;BME280;67472;51.554;7.812;2023-08-31T13:46:37;99996.38;;;21.09;84.73
78198;BME280;67472;51.554;7.812;2023-08-31T13:49:23;100007.69;;;21.18;84.97
78198;BME280;67472;51.554;7.812;2023-08-31T13:52:09;100022.34;;;21.22;84.31
78198;BME280;67472;51.554;7.812;2023-08-31T13:54:56;100015.97;;;21.03;84.23
78198;BME280;67472;51.554;7.812;2023-08-31T13:57:43;100026.44;;;21.31;84.40
78198;BME280;67472;51.554;7.812;2023-08-31T14:00:30;100020.84;;;21.39;83.69
78198;BME280;67472;51.554;7.812;2023-08-31T14:03:16;100024.72;;;21.50;83.26
78198;BME280;67472;51.554;7.812;2023-08-31T14:06:02;100031.72;;;21.57;84.40
78198;BME280;67472;51.554;7.812;2023-08-31T14:08:49;100026.72;;;21.67;82.10
78198;BME280;67472;51.554;7.812;2023-08-31T14:11:36;100029.28;;;21.87;82.56
78198;BME280;67472;51.554;7.812;2023-08-31T14:14:23;100038.34;;;22.06;82.04
78198;BME280;67472;51.554;7.812;2023-08-31T14:17:10;100011.75;;;21.78;78.78
78198;BME280;67472;51.554;7.812;2023-08-31T14:19:58;100035.38;;;21.76;81.27
78198;BME280;67472;51.554;7.812;2023-08-31T14:22:44;100038.31;;;21.61;82.16